createdAt,value
2023-08-15T00:02:03.296Z,7.38
2023-08-15T00:04:32.912Z,6.53
2023-08-15T00:06:59.775Z,10.27
2023-08-15T00:09:26.766Z,9.23
2023-08-15T00:11:53.591Z,6.35
2023-08-15T00:14:20.438Z,7.47
2023-08-15T00:16:47.284Z,8.45
2023-08-15T00:19:14.547Z,10.60
2023-08-15T00:21:41.377Z,7.57
2023-08-15T00:24:08.475Z,7.45
2023-08-15T00:26:35.252Z,8.57
2023-08-15T00:29:01.993Z,9.57
2023-08-15T00:31:29.590Z,6.20
2023-08-15T00:33:56.555Z,8.50
2023-08-15T00:36:23.340Z,6.40
2023-08-15T00:38:50.066Z,7.57
2023-08-15T00:41:17.984Z,7.72
2023-08-15T00:43:44.722Z,13.45
2023-08-15T00:46:12.586Z,9.02
2023-08-15T00:48:39.916Z,7.90
2023-08-15T00:51:08.817Z,7.00
2023-08-15T00:53:36.049Z,10.75
2023-08-15T00:56:04.054Z,8.27
2023-08-15T00:58:31.844Z,13.63
2023-08-15T01:00:58.946Z,7.50
2023-08-15T01:03:26.088Z,8.23
2023-08-15T01:05:53.484Z,10.10
2023-08-15T01:08:21.356Z,8.70
2023-08-15T01:10:48.333Z,9.15
2023-08-15T01:13:37.297Z,8.23
2023-08-15T01:16:08.935Z,7.55
2023-08-15T01:18:46.457Z,9.43
2023-08-15T01:21:17.227Z,9.68
2023-08-15T01:23:47.944Z,11.45
2023-08-15T01:26:14.689Z,8.18
2023-08-15T01:28:41.552Z,8.15
2023-08-15T01:31:08.366Z,7.05
2023-08-15T01:33:43.521Z,7.20
2023-08-15T01:36:21.578Z,9.15
2023-08-15T01:39:01.364Z,5.22
2023-08-15T01:41:33.040Z,5.03
2023-08-15T01:44:01.167Z,7.00
2023-08-15T01:46:28.329Z,9.23
2023-08-15T01:48:58.757Z,9.82
2023-08-15T01:51:25.675Z,4.82
2023-08-15T01:53:52.662Z,7.82
2023-08-15T01:56:19.528Z,5.25
2023-08-15T01:58:46.553Z,7.28
2023-08-15T02:01:15.456Z,6.55
2023-08-15T02:03:42.450Z,6.25
2023-08-15T02:06:10.319Z,6.47
2023-08-15T02:08:37.064Z,10.02
2023-08-15T02:11:04.018Z,7.40
2023-08-15T02:13:33.599Z,4.63
2023-08-15T02:16:01.496Z,5.17
2023-08-15T02:18:30.556Z,7.25
2023-08-15T02:20:57.381Z,7.43
2023-08-15T02:23:24.476Z,5.88
2023-08-15T02:25:51.280Z,10.88
2023-08-15T02:28:18.830Z,9.30
2023-08-15T02:30:45.721Z,7.53
2023-08-15T02:33:12.758Z,8.57
2023-08-15T02:35:41.620Z,7.60
2023-08-15T02:38:09.061Z,5.40
2023-08-15T02:40:38.170Z,9.23
2023-08-15T02:43:05.149Z,4.40
2023-08-15T02:45:31.928Z,5.15
2023-08-15T02:47:58.724Z,7.00
2023-08-15T02:50:25.800Z,6.50
2023-08-15T02:52:52.615Z,8.88
2023-08-15T02:55:19.362Z,6.93
2023-08-15T02:57:46.184Z,12.35
2023-08-15T03:00:13.422Z,9.55
2023-08-15T03:02:41.665Z,8.05
2023-08-15T03:05:09.268Z,9.25
2023-08-15T03:07:36.058Z,7.38
2023-08-15T03:10:04.817Z,13.90
2023-08-15T03:12:31.604Z,8.57
2023-08-15T03:15:01.159Z,7.20
2023-08-15T03:17:28.221Z,8.77
2023-08-15T03:19:56.116Z,11.98
2023-08-15T03:22:23.043Z,7.82
2023-08-15T03:24:49.933Z,12.32
2023-08-15T03:27:16.779Z,10.00
2023-08-15T03:29:43.885Z,13.55
2023-08-15T03:32:11.209Z,13.20
2023-08-15T03:34:38.812Z,8.32
2023-08-15T03:37:05.876Z,11.40
2023-08-15T03:39:32.653Z,15.52
2023-08-15T03:41:59.424Z,9.05
2023-08-15T03:44:26.428Z,7.32
2023-08-15T03:46:53.210Z,10.98
2023-08-15T03:49:20.268Z,8.23
2023-08-15T03:51:47.824Z,11.05
2023-08-15T03:54:17.481Z,9.73
2023-08-15T03:56:45.345Z,16.33
2023-08-15T03:59:12.228Z,8.77
2023-08-15T04:01:39.129Z,12.65
2023-08-15T04:04:06.775Z,9.48
2023-08-15T04:06:33.615Z,9.38
2023-08-15T04:09:00.380Z,17.05
2023-08-15T04:11:27.186Z,13.75
2023-08-15T04:13:54.006Z,13.35
2023-08-15T04:16:20.993Z,11.18
2023-08-15T04:18:47.773Z,14.75
2023-08-15T04:21:14.529Z,17.60
2023-08-15T04:23:41.385Z,10.27
2023-08-15T04:26:08.185Z,10.68
2023-08-15T04:28:35.037Z,11.95
2023-08-15T04:31:01.930Z,9.13
2023-08-15T04:33:28.723Z,15.40
2023-08-15T04:35:55.573Z,18.98
2023-08-15T04:38:22.559Z,11.77
2023-08-15T04:40:49.896Z,18.10
2023-08-15T04:43:16.786Z,9.98
2023-08-15T04:45:45.369Z,15.93
2023-08-15T04:48:13.898Z,9.90
2023-08-15T04:50:41.115Z,13.57
2023-08-15T04:53:08.204Z,16.00
2023-08-15T04:55:35.774Z,10.48
2023-08-15T04:58:03.336Z,13.45
2023-08-15T05:00:33.140Z,8.93
2023-08-15T05:03:01.041Z,13.50
2023-08-15T05:05:28.026Z,13.75
2023-08-15T05:07:55.052Z,14.30
2023-08-15T05:10:22.201Z,14.65
2023-08-15T05:12:49.047Z,14.68
2023-08-15T05:15:15.960Z,14.48
2023-08-15T05:17:45.005Z,18.30
2023-08-15T05:20:13.223Z,10.45
2023-08-15T05:22:40.142Z,10.40
2023-08-15T05:25:07.414Z,14.13
2023-08-15T05:30:06.483Z,13.27
2023-08-15T05:32:33.334Z,11.60
2023-08-15T05:35:01.197Z,13.00
2023-08-15T05:37:27.944Z,7.82
2023-08-15T05:39:55.339Z,10.48
2023-08-15T05:42:22.179Z,16.55
2023-08-15T05:44:49.062Z,11.52
2023-08-15T05:47:15.987Z,13.25
2023-08-15T05:49:43.811Z,16.70
2023-08-15T05:52:10.829Z,12.45
2023-08-15T05:54:37.632Z,9.65
2023-08-15T05:57:04.893Z,11.98
2023-08-15T05:59:31.881Z,9.23
2023-08-15T06:01:59.628Z,11.73
2023-08-15T06:04:26.461Z,9.23
2023-08-15T06:06:53.285Z,13.20
2023-08-15T06:09:20.080Z,13.25
2023-08-15T06:11:46.943Z,16.83
2023-08-15T06:14:13.681Z,13.20
2023-08-15T06:16:40.605Z,16.42
2023-08-15T06:19:07.499Z,10.82
2023-08-15T06:21:34.249Z,12.60
2023-08-15T06:24:00.996Z,9.70
2023-08-15T06:26:27.828Z,14.75
2023-08-15T06:28:54.638Z,14.52
2023-08-15T06:31:22.392Z,10.40
2023-08-15T06:33:49.192Z,13.27
2023-08-15T06:36:15.941Z,11.65
2023-08-15T06:38:42.715Z,14.57
2023-08-15T06:41:09.435Z,13.80
2023-08-15T06:43:36.207Z,14.02
2023-08-15T06:46:03.104Z,14.57
2023-08-15T06:48:29.970Z,14.80
2023-08-15T06:50:56.939Z,14.32
2023-08-15T06:53:24.121Z,15.25
2023-08-15T06:55:51.233Z,15.88
2023-08-15T06:58:18.548Z,11.18
2023-08-15T07:00:45.564Z,13.77
2023-08-15T07:03:13.793Z,13.57
2023-08-15T07:05:41.402Z,8.07
2023-08-15T07:08:08.718Z,17.20
2023-08-15T07:10:36.559Z,11.25
2023-08-15T07:13:03.873Z,12.75
2023-08-15T07:15:31.721Z,14.65
2023-08-15T07:17:58.860Z,11.93
2023-08-15T07:20:26.878Z,14.05
2023-08-15T07:22:56.308Z,12.80
2023-08-15T07:25:23.741Z,12.32
2023-08-15T07:27:50.716Z,10.35
2023-08-15T07:30:17.639Z,11.63
2023-08-15T07:32:45.341Z,9.18
2023-08-15T07:35:12.136Z,13.13
2023-08-15T07:37:39.027Z,13.63
2023-08-15T07:40:10.874Z,13.63
2023-08-15T07:42:38.177Z,14.18
2023-08-15T07:45:05.615Z,9.75
2023-08-15T07:47:35.422Z,11.10
2023-08-15T07:50:16.864Z,11.00
2023-08-15T07:52:44.281Z,11.98
2023-08-15T07:55:11.816Z,11.75
2023-08-15T07:57:39.172Z,8.38
2023-08-15T08:00:07.998Z,10.75
2023-08-15T08:02:39.692Z,12.93
2023-08-15T08:05:11.126Z,17.27
2023-08-15T08:07:41.901Z,12.40
2023-08-15T08:10:09.092Z,10.40
2023-08-15T08:12:36.469Z,14.70
2023-08-15T08:15:05.440Z,12.65
2023-08-15T08:17:32.339Z,12.68
2023-08-15T08:19:59.200Z,11.50
2023-08-15T08:22:25.981Z,12.30
2023-08-15T08:24:54.341Z,17.85
2023-08-15T08:27:22.209Z,13.65
2023-08-15T08:29:49.030Z,11.93
2023-08-15T08:32:15.866Z,8.65
2023-08-15T08:34:42.675Z,9.77
2023-08-15T08:37:09.423Z,8.85
2023-08-15T08:39:36.284Z,11.23
2023-08-15T08:42:04.960Z,12.10
2023-08-15T08:44:33.087Z,8.60
2023-08-15T08:47:00.874Z,10.23
2023-08-15T08:49:28.813Z,10.73
2023-08-15T08:51:57.912Z,7.50
2023-08-15T08:54:40.847Z,10.40
2023-08-15T08:57:12.633Z,10.68
2023-08-15T08:59:43.480Z,9.73
2023-08-15T09:02:14.022Z,10.07
2023-08-15T09:04:42.165Z,9.55
2023-08-15T09:07:09.116Z,9.85
2023-08-15T09:09:35.921Z,11.70
2023-08-15T09:12:03.074Z,8.38
2023-08-15T09:14:29.896Z,8.38
2023-08-15T09:16:56.753Z,8.63
2023-08-15T09:19:23.529Z,9.10
2023-08-15T09:21:50.252Z,9.82
2023-08-15T09:24:17.085Z,9.57
2023-08-15T09:26:43.913Z,12.90
2023-08-15T09:29:13.621Z,10.45
2023-08-15T09:31:41.030Z,11.23
2023-08-15T09:34:11.507Z,9.60
2023-08-15T09:36:39.169Z,10.15
2023-08-15T09:39:09.943Z,7.90
2023-08-15T09:41:44.587Z,11.25
2023-08-15T09:44:11.353Z,7.10
2023-08-15T09:46:38.652Z,7.82
2023-08-15T09:49:06.368Z,8.75
2023-08-15T09:51:34.429Z,8.07
2023-08-15T09:54:03.674Z,8.63
2023-08-15T09:56:30.368Z,14.18
2023-08-15T09:58:57.130Z,11.43
2023-08-15T10:01:28.880Z,8.25
2023-08-15T10:03:58.369Z,8.52
2023-08-15T10:06:25.871Z,9.73
2023-08-15T10:08:56.229Z,8.05
2023-08-15T10:11:26.756Z,11.07
2023-08-15T10:13:54.042Z,11.02
2023-08-15T10:16:21.394Z,8.63
2023-08-15T10:18:58.504Z,8.82
2023-08-15T10:21:29.745Z,5.63
2023-08-15T10:24:04.326Z,9.48
2023-08-15T10:26:32.199Z,10.98
2023-08-15T10:28:58.989Z,8.18
2023-08-15T10:31:38.460Z,8.10
2023-08-15T10:34:08.800Z,13.77
2023-08-15T10:36:36.525Z,7.70
2023-08-15T10:39:08.303Z,6.57
2023-08-15T10:41:39.802Z,7.78
2023-08-15T10:44:08.449Z,11.48
2023-08-15T10:46:36.811Z,9.63
2023-08-15T10:49:08.791Z,8.85
2023-08-15T10:54:07.497Z,10.57
2023-08-15T10:56:40.852Z,7.57
2023-08-15T10:59:10.178Z,6.63
2023-08-15T11:01:38.385Z,8.20
2023-08-15T11:04:09.267Z,10.70
2023-08-15T11:06:50.484Z,9.48
2023-08-15T11:09:18.293Z,14.45
2023-08-15T11:11:46.491Z,9.65
2023-08-15T11:14:19.446Z,8.55
2023-08-15T11:16:50.223Z,8.32
2023-08-15T11:19:20.852Z,12.30
2023-08-15T11:21:49.109Z,10.23
2023-08-15T11:24:18.099Z,11.73
2023-08-15T11:26:45.559Z,10.43
2023-08-15T11:29:13.893Z,11.45
2023-08-15T11:31:42.241Z,9.63
2023-08-15T11:34:12.116Z,9.73
2023-08-15T11:36:38.979Z,9.15
2023-08-15T11:39:11.709Z,9.70
2023-08-15T11:41:38.953Z,10.43
2023-08-15T11:44:05.956Z,14.23
2023-08-15T11:46:52.882Z,13.00
2023-08-15T11:49:23.845Z,8.43
2023-08-15T11:52:02.172Z,11.45
2023-08-15T11:54:29.001Z,11.43
2023-08-15T11:56:55.838Z,10.20
2023-08-15T11:59:24.562Z,13.07
2023-08-15T12:01:51.617Z,9.63
2023-08-15T12:04:19.208Z,9.07
2023-08-15T12:06:46.626Z,8.43
2023-08-15T12:09:13.771Z,7.82
2023-08-15T12:11:42.883Z,9.38
2023-08-15T12:14:23.493Z,11.77
2023-08-15T12:16:50.298Z,9.57
2023-08-15T12:19:21.779Z,6.70
2023-08-15T12:21:51.233Z,11.55
2023-08-15T12:24:18.273Z,10.73
2023-08-15T12:26:45.100Z,7.95
2023-08-15T12:29:12.120Z,12.25
2023-08-15T12:31:40.857Z,8.50
2023-08-15T12:34:07.791Z,7.70
2023-08-15T12:36:34.688Z,5.82
2023-08-15T12:39:01.453Z,6.80
2023-08-15T12:41:28.253Z,8.23
2023-08-15T12:43:55.927Z,3.47
2023-08-15T12:46:24.511Z,6.15
2023-08-15T12:48:51.319Z,5.15
2023-08-15T12:51:18.126Z,6.22
2023-08-15T12:53:45.029Z,5.78
2023-08-15T12:56:11.897Z,3.65
2023-08-15T12:58:40.137Z,3.08
2023-08-15T13:01:06.986Z,3.30
2023-08-15T13:03:33.848Z,5.57
2023-08-15T13:06:00.677Z,2.90
2023-08-15T13:08:27.409Z,3.65
2023-08-15T13:10:54.234Z,2.50
2023-08-15T13:13:21.014Z,1.90
2023-08-15T13:15:48.075Z,2.92
2023-08-15T13:18:14.990Z,3.13
2023-08-15T13:20:42.123Z,2.13
2023-08-15T13:23:09.012Z,3.30
2023-08-15T13:25:35.809Z,2.33
2023-08-15T13:28:02.648Z,2.42
2023-08-15T13:30:29.511Z,4.65
2023-08-15T13:32:56.397Z,3.03
2023-08-15T13:35:23.282Z,3.88
2023-08-15T13:37:50.191Z,2.53
2023-08-15T13:40:17.038Z,5.43
2023-08-15T13:42:44.246Z,1.95
2023-08-15T13:45:11.420Z,2.42
2023-08-15T13:47:39.056Z,1.95
2023-08-15T13:50:07.656Z,1.77
2023-08-15T13:52:35.044Z,1.90
2023-08-15T13:55:01.880Z,1.88
2023-08-15T13:57:28.842Z,1.45
2023-08-15T13:59:57.674Z,1.63
2023-08-15T14:02:24.491Z,1.10
2023-08-15T14:04:51.426Z,1.10
2023-08-15T14:07:18.283Z,1.55
2023-08-15T14:09:45.121Z,2.40
2023-08-15T14:12:11.960Z,1.90
2023-08-15T14:14:39.872Z,1.70
2023-08-15T14:17:07.570Z,4.40
2023-08-15T14:19:34.474Z,4.05
2023-08-15T14:22:01.418Z,2.33
2023-08-15T14:24:28.155Z,2.63
2023-08-15T14:26:54.859Z,2.05
2023-08-15T14:29:21.601Z,2.15
2023-08-15T14:31:48.431Z,2.08
2023-08-15T14:34:15.540Z,1.90
2023-08-15T14:36:42.320Z,6.55
2023-08-15T14:39:09.178Z,2.53
2023-08-15T14:41:36.024Z,3.10
2023-08-15T14:44:03.109Z,2.28
2023-08-15T14:46:29.995Z,1.73
2023-08-15T14:48:56.941Z,2.22
2023-08-15T14:51:23.694Z,2.35
2023-08-15T14:53:50.440Z,2.60
2023-08-15T14:56:18.531Z,4.07
2023-08-15T14:58:46.192Z,3.08
2023-08-15T15:01:13.482Z,1.83
2023-08-15T15:03:40.727Z,1.35
2023-08-15T15:06:07.707Z,1.73
2023-08-15T15:08:34.644Z,2.22
2023-08-15T15:11:04.303Z,3.08
2023-08-15T15:13:31.375Z,4.18
2023-08-15T15:15:58.221Z,2.25
2023-08-15T15:18:25.132Z,2.67
2023-08-15T15:20:52.035Z,2.33
2023-08-15T15:23:19.292Z,1.77
2023-08-15T15:25:47.113Z,2.70
2023-08-15T15:28:13.899Z,4.28
2023-08-15T15:30:40.859Z,4.30
2023-08-15T15:33:07.627Z,4.68
2023-08-15T15:35:34.493Z,5.20
2023-08-15T15:38:01.330Z,5.43
2023-08-15T15:40:28.154Z,2.75
2023-08-15T15:42:55.046Z,3.63
2023-08-15T15:45:21.826Z,5.68
2023-08-15T15:47:48.821Z,2.33
2023-08-15T15:50:21.224Z,1.88
2023-08-15T15:52:48.659Z,2.92
2023-08-15T15:55:21.122Z,2.08
2023-08-15T15:57:48.361Z,2.58
2023-08-15T16:00:17.228Z,3.85
2023-08-15T16:02:44.709Z,4.80
2023-08-15T16:05:12.547Z,2.95
2023-08-15T16:07:39.842Z,4.57
2023-08-15T16:10:07.868Z,6.88
2023-08-15T16:12:34.643Z,4.30
2023-08-15T16:15:01.794Z,2.92
2023-08-15T16:17:29.264Z,5.15
2023-08-15T16:19:56.601Z,4.82
2023-08-15T16:22:23.845Z,2.83
2023-08-15T16:24:52.487Z,6.82
2023-08-15T16:27:20.502Z,7.65
2023-08-15T16:29:47.278Z,3.53
2023-08-15T16:32:16.729Z,5.28
2023-08-15T16:34:43.961Z,5.93
2023-08-15T16:37:10.820Z,3.25
2023-08-15T16:39:37.637Z,8.05
2023-08-15T16:42:04.774Z,9.60
2023-08-15T16:44:31.594Z,5.05
2023-08-15T16:46:58.472Z,9.50
2023-08-15T16:49:25.410Z,5.25
2023-08-15T16:51:52.225Z,4.38
2023-08-15T16:54:19.034Z,5.63
2023-08-15T16:56:45.840Z,6.57
2023-08-15T16:59:12.738Z,7.38
2023-08-15T17:01:39.698Z,6.72
2023-08-15T17:04:06.816Z,6.68
2023-08-15T17:06:33.711Z,6.47
2023-08-15T17:09:00.497Z,7.00
2023-08-15T17:11:27.257Z,5.25
2023-08-15T17:13:53.992Z,7.53
2023-08-15T17:16:20.943Z,6.35
2023-08-15T17:18:47.924Z,7.07
2023-08-15T17:21:14.835Z,6.15
2023-08-15T17:23:41.645Z,7.75
2023-08-15T17:26:08.581Z,4.38
2023-08-15T17:28:35.388Z,6.13
2023-08-15T17:31:02.255Z,4.72
2023-08-15T17:33:29.100Z,4.88
2023-08-15T17:35:55.900Z,6.00
2023-08-15T17:38:22.666Z,5.05
2023-08-15T17:40:49.530Z,5.70
2023-08-15T17:43:16.339Z,2.60
2023-08-15T17:45:43.272Z,4.18
2023-08-15T17:48:10.191Z,5.35
2023-08-15T17:50:36.975Z,4.00
2023-08-15T17:53:03.914Z,3.50
2023-08-15T17:55:30.868Z,7.43
2023-08-15T17:57:57.770Z,6.15
2023-08-15T18:00:24.816Z,7.80
2023-08-15T18:02:51.707Z,4.88
2023-08-15T18:05:18.800Z,4.88
2023-08-15T18:07:45.568Z,4.57
2023-08-15T18:10:12.363Z,2.05
2023-08-15T18:12:39.234Z,5.00
2023-08-15T18:15:06.539Z,4.05
2023-08-15T18:17:33.761Z,2.25
2023-08-15T18:20:01.678Z,2.53
2023-08-15T18:22:28.809Z,3.25
2023-08-15T18:24:55.741Z,5.63
2023-08-15T18:27:22.537Z,4.25
2023-08-15T18:29:49.444Z,3.53
2023-08-15T18:32:16.295Z,3.05
2023-08-15T18:34:43.240Z,2.15
2023-08-15T18:37:16.565Z,2.35
2023-08-15T18:39:43.556Z,2.13
2023-08-15T18:42:10.385Z,3.30
2023-08-15T18:44:37.142Z,3.53
2023-08-15T18:47:04.187Z,6.13
2023-08-15T18:49:31.286Z,2.80
2023-08-15T18:51:58.073Z,1.83
2023-08-15T18:54:25.402Z,5.65
2023-08-15T18:56:52.169Z,2.55
2023-08-15T18:59:23.989Z,2.13
2023-08-15T19:01:51.446Z,3.35
2023-08-15T19:04:18.172Z,3.83
2023-08-15T19:06:44.949Z,4.13
2023-08-15T19:09:11.947Z,2.20
2023-08-15T19:11:38.757Z,5.03
2023-08-15T19:14:05.656Z,3.15
2023-08-15T19:16:32.431Z,3.33
2023-08-15T19:19:03.881Z,6.25
2023-08-15T19:21:31.206Z,4.93
2023-08-15T19:23:58.001Z,4.15
2023-08-15T19:26:24.754Z,4.65
2023-08-15T19:28:51.782Z,4.32
2023-08-15T19:31:18.665Z,4.22
2023-08-15T19:33:45.500Z,3.42
2023-08-15T19:36:12.374Z,2.13
2023-08-15T19:38:39.120Z,4.10
2023-08-15T19:41:05.921Z,4.25
2023-08-15T19:43:33.113Z,4.35
2023-08-15T19:46:03.214Z,3.75
2023-08-15T19:48:31.778Z,2.83
2023-08-15T19:50:59.146Z,3.17
2023-08-15T19:53:26.335Z,3.42
2023-08-15T19:55:53.350Z,3.05
2023-08-15T19:58:20.158Z,9.65
2023-08-15T20:00:47.020Z,7.10
2023-08-15T20:03:13.916Z,4.93
2023-08-15T20:05:40.862Z,4.00
2023-08-15T20:08:07.657Z,7.60
2023-08-15T20:10:34.427Z,3.88
2023-08-15T20:13:01.354Z,4.75
2023-08-15T20:15:28.193Z,2.90
2023-08-15T20:17:55.018Z,8.10
2023-08-15T20:20:22.722Z,7.72
2023-08-15T20:22:49.552Z,3.95
2023-08-15T20:25:16.422Z,5.15
2023-08-15T20:27:43.193Z,3.08
2023-08-15T20:30:13.242Z,4.65
2023-08-15T20:32:40.087Z,4.03
2023-08-15T20:35:07.514Z,3.17
2023-08-15T20:37:34.391Z,6.18
2023-08-15T20:40:02.262Z,7.13
2023-08-15T20:42:29.104Z,9.52
2023-08-15T20:44:55.870Z,8.05
2023-08-15T20:47:22.780Z,9.15
2023-08-15T20:49:49.573Z,8.68
2023-08-15T20:52:19.381Z,6.95
2023-08-15T20:54:46.360Z,10.40
2023-08-15T20:57:13.867Z,10.10
2023-08-15T20:59:40.734Z,6.25
2023-08-15T21:02:08.376Z,6.10
2023-08-15T21:04:35.262Z,7.60
2023-08-15T21:07:02.260Z,5.28
2023-08-15T21:09:30.618Z,5.55
2023-08-15T21:11:57.693Z,6.18
2023-08-15T21:14:25.233Z,8.88
2023-08-15T21:16:52.523Z,4.30
2023-08-15T21:19:19.434Z,4.97
2023-08-15T21:21:46.337Z,6.18
2023-08-15T21:24:13.405Z,5.93
2023-08-15T21:26:40.199Z,5.35
2023-08-15T21:29:07.002Z,4.32
2023-08-15T21:31:33.758Z,5.82
2023-08-15T21:34:00.608Z,9.60
2023-08-15T21:36:27.689Z,6.45
2023-08-15T21:38:54.666Z,3.13
2023-08-15T21:41:21.442Z,7.35
2023-08-15T21:43:48.303Z,6.68
2023-08-15T21:46:15.150Z,14.45
2023-08-15T21:48:42.002Z,6.07
2023-08-15T21:51:08.858Z,6.93
2023-08-15T21:53:36.467Z,5.85
2023-08-15T21:56:03.340Z,4.00
2023-08-15T21:58:30.171Z,11.52
2023-08-15T22:00:57.291Z,5.43
2023-08-15T22:03:24.355Z,4.93
2023-08-15T22:05:51.292Z,4.72
2023-08-15T22:08:18.075Z,6.88
2023-08-15T22:10:47.868Z,5.38
2023-08-15T22:13:14.898Z,5.57
2023-08-15T22:15:43.343Z,5.63
2023-08-15T22:18:19.349Z,6.93
2023-08-15T22:20:47.775Z,6.90
2023-08-15T22:23:14.857Z,8.13
2023-08-15T22:25:48.973Z,4.38
2023-08-15T22:28:16.716Z,6.53
2023-08-15T22:30:44.766Z,8.35
2023-08-15T22:33:11.575Z,4.47
2023-08-15T22:35:39.905Z,5.97
2023-08-15T22:38:07.204Z,4.65
2023-08-15T22:40:34.197Z,13.38
2023-08-15T22:43:01.097Z,6.53
2023-08-15T22:45:27.966Z,10.88
2023-08-15T22:47:54.909Z,7.85
2023-08-15T22:50:21.714Z,7.45
2023-08-15T22:52:48.501Z,6.80
2023-08-15T22:55:15.353Z,4.50
2023-08-15T22:57:42.138Z,6.60
2023-08-15T23:00:10.864Z,4.72
2023-08-15T23:02:39.650Z,6.78
2023-08-15T23:05:06.924Z,4.35
2023-08-15T23:07:33.690Z,8.18
2023-08-15T23:10:00.427Z,8.52
2023-08-15T23:12:27.194Z,6.65
2023-08-15T23:14:53.980Z,9.85
2023-08-15T23:17:21.220Z,8.57
2023-08-15T23:19:48.169Z,4.93
2023-08-15T23:22:14.960Z,8.32
2023-08-15T23:24:41.688Z,4.10
2023-08-15T23:27:09.033Z,5.53
2023-08-15T23:29:35.903Z,5.25
2023-08-15T23:32:04.818Z,8.55
2023-08-15T23:34:31.638Z,5.30
2023-08-15T23:36:58.873Z,4.10
2023-08-15T23:39:26.195Z,7.88
2023-08-15T23:41:53.112Z,8.75
2023-08-15T23:44:19.876Z,5.45
2023-08-15T23:46:48.196Z,10.68
2023-08-15T23:49:15.152Z,9.35
2023-08-15T23:51:41.912Z,6.25
2023-08-15T23:54:08.934Z,5.97
2023-08-15T23:56:35.679Z,7.72
2023-08-15T23:59:02.500Z,6.00
